sensor_id;sensor_type;location;lat;lon;timestamp;temperature;humidity
75985;DHT22;65033;44.660;37.758;2023-09-19T00:00:35;21.53;36.06
75985;DHT22;65033;44.660;37.758;2023-09-19T00:01:40;21.53;36.02
75985;DHT22;65033;44.660;37.758;2023-09-19T00:02:46;21.53;36.12
75985;DHT22;65033;44.660;37.758;2023-09-19T00:03:50;21.52;36.18
75985;DHT22;65033;44.660;37.758;2023-09-19T00:04:54;21.53;36.48
75985;DHT22;65033;44.660;37.758;2023-09-19T00:05:59;21.54;36.64
75985;DHT22;65033;44.660;37.758;2023-09-19T00:07:03;21.55;36.76
75985;DHT22;65033;44.660;37.758;2023-09-19T00:08:07;21.55;36.86
75985;DHT22;65033;44.660;37.758;2023-09-19T00:09:11;21.54;37.17
75985;DHT22;65033;44.660;37.758;2023-09-19T00:10:14;21.54;37.21
75985;DHT22;65033;44.660;37.758;2023-09-19T00:11:21;21.52;37.37
75985;DHT22;65033;44.660;37.758;2023-09-19T00:12:29;21.50;37.09
75985;DHT22;65033;44.660;37.758;2023-09-19T00:13:32;21.49;36.69
75985;DHT22;65033;44.660;37.758;2023-09-19T00:14:37;21.51;36.05
75985;DHT22;65033;44.660;37.758;2023-09-19T00:15:42;21.52;36.11
75985;DHT22;65033;44.660;37.758;2023-09-19T00:16:45;21.53;36.16
75985;DHT22;65033;44.660;37.758;2023-09-19T00:17:49;21.54;36.34
75985;DHT22;65033;44.660;37.758;2023-09-19T00:18:55;21.53;36.82
75985;DHT22;65033;44.660;37.758;2023-09-19T00:19:59;21.53;37.20
75985;DHT22;65033;44.660;37.758;2023-09-19T00:21:10;21.52;37.32
75985;DHT22;65033;44.660;37.758;2023-09-19T00:22:14;21.53;37.66
75985;DHT22;65033;44.660;37.758;2023-09-19T00:23:19;21.52;38.01
75985;DHT22;65033;44.660;37.758;2023-09-19T00:24:23;21.53;38.17
75985;DHT22;65033;44.660;37.758;2023-09-19T00:25:26;21.51;38.26
75985;DHT22;65033;44.660;37.758;2023-09-19T00:26:33;21.51;38.34
75985;DHT22;65033;44.660;37.758;2023-09-19T00:27:38;21.49;38.04
75985;DHT22;65033;44.660;37.758;2023-09-19T00:28:45;21.50;38.04
75985;DHT22;65033;44.660;37.758;2023-09-19T00:29:48;21.49;37.68
75985;DHT22;65033;44.660;37.758;2023-09-19T00:30:52;21.48;37.44
75985;DHT22;65033;44.660;37.758;2023-09-19T00:31:57;21.45;37.27
75985;DHT22;65033;44.660;37.758;2023-09-19T00:33:02;21.45;36.92
75985;DHT22;65033;44.660;37.758;2023-09-19T00:34:09;21.44;36.63
75985;DHT22;65033;44.660;37.758;2023-09-19T00:35:14;21.43;36.64
75985;DHT22;65033;44.660;37.758;2023-09-19T00:36:18;21.43;36.61
75985;DHT22;65033;44.660;37.758;2023-09-19T00:37:23;21.43;36.63
75985;DHT22;65033;44.660;37.758;2023-09-19T00:38:26;21.40;36.70
75985;DHT22;65033;44.660;37.758;2023-09-19T00:39:30;21.40;36.86
75985;DHT22;65033;44.660;37.758;2023-09-19T00:40:35;21.40;37.02
75985;DHT22;65033;44.660;37.758;2023-09-19T00:41:42;21.37;37.04
75985;DHT22;65033;44.660;37.758;2023-09-19T00:42:48;21.38;37.05
75985;DHT22;65033;44.660;37.758;2023-09-19T00:43:52;21.37;37.00
75985;DHT22;65033;44.660;37.758;2023-09-19T00:44:55;21.36;37.02
75985;DHT22;65033;44.660;37.758;2023-09-19T00:45:59;21.36;37.03
75985;DHT22;65033;44.660;37.758;2023-09-19T00:47:04;21.35;37.02
75985;DHT22;65033;44.660;37.758;2023-09-19T00:48:07;21.34;37.01
75985;DHT22;65033;44.660;37.758;2023-09-19T00:49:12;21.36;37.08
75985;DHT22;65033;44.660;37.758;2023-09-19T00:50:19;21.35;37.11
75985;DHT22;65033;44.660;37.758;2023-09-19T00:51:24;21.34;37.02
75985;DHT22;65033;44.660;37.758;2023-09-19T00:52:28;21.33;37.26
75985;DHT22;65033;44.660;37.758;2023-09-19T00:53:32;21.33;37.01
75985;DHT22;65033;44.660;37.758;2023-09-19T00:54:37;21.35;37.02
75985;DHT22;65033;44.660;37.758;2023-09-19T00:55:40;21.33;37.10
75985;DHT22;65033;44.660;37.758;2023-09-19T00:56:47;21.33;37.10
75985;DHT22;65033;44.660;37.758;2023-09-19T00:57:52;21.31;37.10
75985;DHT22;65033;44.660;37.758;2023-09-19T00:58:55;21.29;37.05
75985;DHT22;65033;44.660;37.758;2023-09-19T01:00:00;21.29;36.70
75985;DHT22;65033;44.660;37.758;2023-09-19T01:01:09;21.27;36.71
75985;DHT22;65033;44.660;37.758;2023-09-19T01:02:15;21.28;36.69
75985;DHT22;65033;44.660;37.758;2023-09-19T01:03:19;21.30;36.76
75985;DHT22;65033;44.660;37.758;2023-09-19T01:04:22;21.29;36.58
75985;DHT22;65033;44.660;37.758;2023-09-19T01:05:26;21.31;36.59
75985;DHT22;65033;44.660;37.758;2023-09-19T01:06:30;21.31;36.47
75985;DHT22;65033;44.660;37.758;2023-09-19T01:07:34;21.32;36.47
75985;DHT22;65033;44.660;37.758;2023-09-19T01:08:38;21.32;36.48
75985;DHT22;65033;44.660;37.758;2023-09-19T01:09:41;21.32;36.55
75985;DHT22;65033;44.660;37.758;2023-09-19T01:10:51;21.31;36.52
75985;DHT22;65033;44.660;37.758;2023-09-19T01:12:00;21.30;36.58
75985;DHT22;65033;44.660;37.758;2023-09-19T01:13:05;21.31;36.64
75985;DHT22;65033;44.660;37.758;2023-09-19T01:14:25;21.29;36.76
75985;DHT22;65033;44.660;37.758;2023-09-19T01:15:40;21.27;36.87
75985;DHT22;65033;44.660;37.758;2023-09-19T01:16:56;21.27;36.95
75985;DHT22;65033;44.660;37.758;2023-09-19T01:18:11;21.24;36.98
75985;DHT22;65033;44.660;37.758;2023-09-19T01:19:33;21.24;37.00
75985;DHT22;65033;44.660;37.758;2023-09-19T01:20:49;21.22;37.36
75985;DHT22;65033;44.660;37.758;2023-09-19T01:22:04;21.20;37.52
75985;DHT22;65033;44.660;37.758;2023-09-19T01:23:18;21.19;37.65
75985;DHT22;65033;44.660;37.758;2023-09-19T01:24:43;21.17;37.75
75985;DHT22;65033;44.660;37.758;2023-09-19T01:26:15;21.16;37.44
75985;DHT22;65033;44.660;37.758;2023-09-19T01:27:50;21.17;37.26
75985;DHT22;65033;44.660;37.758;2023-09-19T01:29:08;21.18;37.52
75985;DHT22;65033;44.660;37.758;2023-09-19T01:30:19;21.18;37.37
75985;DHT22;65033;44.660;37.758;2023-09-19T01:31:25;21.16;37.24
75985;DHT22;65033;44.660;37.758;2023-09-19T01:32:31;21.15;37.41
75985;DHT22;65033;44.660;37.758;2023-09-19T01:33:55;21.14;37.26
75985;DHT22;65033;44.660;37.758;2023-09-19T01:35:02;21.13;37.22
75985;DHT22;65033;44.660;37.758;2023-09-19T01:36:07;21.14;37.14
75985;DHT22;65033;44.660;37.758;2023-09-19T01:37:12;21.11;37.29
75985;DHT22;65033;44.660;37.758;2023-09-19T01:38:15;21.09;37.43
75985;DHT22;65033;44.660;37.758;2023-09-19T01:39:19;21.09;37.53
75985;DHT22;65033;44.660;37.758;2023-09-19T01:40:22;21.09;37.66
75985;DHT22;65033;44.660;37.758;2023-09-19T01:41:37;21.09;37.77
75985;DHT22;65033;44.660;37.758;2023-09-19T01:42:45;21.09;38.22
75985;DHT22;65033;44.660;37.758;2023-09-19T01:43:49;21.07;38.30
75985;DHT22;65033;44.660;37.758;2023-09-19T01:44:59;21.09;38.53
75985;DHT22;65033;44.660;37.758;2023-09-19T01:46:12;21.08;38.75
75985;DHT22;65033;44.660;37.758;2023-09-19T01:47:22;21.08;38.55
75985;DHT22;65033;44.660;37.758;2023-09-19T01:48:33;21.08;38.70
75985;DHT22;65033;44.660;37.758;2023-09-19T01:49:48;21.06;38.69
75985;DHT22;65033;44.660;37.758;2023-09-19T01:50:59;21.07;38.38
75985;DHT22;65033;44.660;37.758;2023-09-19T01:52:09;21.07;38.59
75985;DHT22;65033;44.660;37.758;2023-09-19T01:53:23;21.06;38.61
75985;DHT22;65033;44.660;37.758;2023-09-19T01:54:32;21.05;38.39
75985;DHT22;65033;44.660;37.758;2023-09-19T01:55:42;21.02;38.38
75985;DHT22;65033;44.660;37.758;2023-09-19T01:56:51;21.02;38.82
75985;DHT22;65033;44.660;37.758;2023-09-19T01:58:01;20.99;38.85
75985;DHT22;65033;44.660;37.758;2023-09-19T01:59:11;20.98;38.84
75985;DHT22;65033;44.660;37.758;2023-09-19T02:00:18;20.96;38.82
75985;DHT22;65033;44.660;37.758;2023-09-19T02:01:28;20.93;38.69
75985;DHT22;65033;44.660;37.758;2023-09-19T02:02:34;20.94;38.69
75985;DHT22;65033;44.660;37.758;2023-09-19T02:03:38;20.92;38.92
75985;DHT22;65033;44.660;37.758;2023-09-19T02:04:44;20.91;39.04
75985;DHT22;65033;44.660;37.758;2023-09-19T02:05:49;20.90;39.35
75985;DHT22;65033;44.660;37.758;2023-09-19T02:06:53;20.89;39.60
75985;DHT22;65033;44.660;37.758;2023-09-19T02:07:57;20.88;39.58
75985;DHT22;65033;44.660;37.758;2023-09-19T02:09:02;20.87;39.43
75985;DHT22;65033;44.660;37.758;2023-09-19T02:10:07;20.86;38.55
75985;DHT22;65033;44.660;37.758;2023-09-19T02:11:13;20.88;38.54
75985;DHT22;65033;44.660;37.758;2023-09-19T02:12:17;20.87;38.73
75985;DHT22;65033;44.660;37.758;2023-09-19T02:13:21;20.87;39.12
75985;DHT22;65033;44.660;37.758;2023-09-19T02:14:28;20.87;39.11
75985;DHT22;65033;44.660;37.758;2023-09-19T02:15:32;20.87;39.27
75985;DHT22;65033;44.660;37.758;2023-09-19T02:16:39;20.86;38.47
75985;DHT22;65033;44.660;37.758;2023-09-19T02:17:42;20.86;38.97
75985;DHT22;65033;44.660;37.758;2023-09-19T02:18:48;20.85;39.10
75985;DHT22;65033;44.660;37.758;2023-09-19T02:19:53;20.85;38.88
75985;DHT22;65033;44.660;37.758;2023-09-19T02:20:57;20.84;38.79
75985;DHT22;65033;44.660;37.758;2023-09-19T02:22:02;20.84;38.87
75985;DHT22;65033;44.660;37.758;2023-09-19T02:23:11;20.83;38.93
75985;DHT22;65033;44.660;37.758;2023-09-19T02:24:15;20.83;38.77
75985;DHT22;65033;44.660;37.758;2023-09-19T02:25:19;20.81;38.65
75985;DHT22;65033;44.660;37.758;2023-09-19T02:26:23;20.80;37.89
75985;DHT22;65033;44.660;37.758;2023-09-19T02:27:26;20.81;38.26
75985;DHT22;65033;44.660;37.758;2023-09-19T02:28:30;20.84;38.45
75985;DHT22;65033;44.660;37.758;2023-09-19T02:29:35;20.85;38.76
75985;DHT22;65033;44.660;37.758;2023-09-19T02:30:38;20.85;39.02
75985;DHT22;65033;44.660;37.758;2023-09-19T02:31:46;20.84;38.60
75985;DHT22;65033;44.660;37.758;2023-09-19T02:32:51;20.86;38.46
75985;DHT22;65033;44.660;37.758;2023-09-19T02:33:54;20.87;38.46
75985;DHT22;65033;44.660;37.758;2023-09-19T02:34:58;20.87;38.56
75985;DHT22;65033;44.660;37.758;2023-09-19T02:36:03;20.86;38.53
75985;DHT22;65033;44.660;37.758;2023-09-19T02:37:08;20.86;38.77
75985;DHT22;65033;44.660;37.758;2023-09-19T02:38:12;20.87;39.14
75985;DHT22;65033;44.660;37.758;2023-09-19T02:39:16;20.87;38.92
75985;DHT22;65033;44.660;37.758;2023-09-19T02:40:20;20.85;38.69
75985;DHT22;65033;44.660;37.758;2023-09-19T02:41:28;20.86;38.59
75985;DHT22;65033;44.660;37.758;2023-09-19T02:42:32;20.87;38.27
75985;DHT22;65033;44.660;37.758;2023-09-19T02:43:35;20.88;38.21
75985;DHT22;65033;44.660;37.758;2023-09-19T02:44:39;20.88;37.90
75985;DHT22;65033;44.660;37.758;2023-09-19T02:45:43;20.89;37.96
75985;DHT22;65033;44.660;37.758;2023-09-19T02:46:50;20.89;37.75
75985;DHT22;65033;44.660;37.758;2023-09-19T02:47:54;20.89;37.51
75985;DHT22;65033;44.660;37.758;2023-09-19T02:48:58;20.89;37.62
75985;DHT22;65033;44.660;37.758;2023-09-19T02:50:01;20.88;37.65
75985;DHT22;65033;44.660;37.758;2023-09-19T02:51:05;20.89;37.75
75985;DHT22;65033;44.660;37.758;2023-09-19T02:52:08;20.89;37.77
75985;DHT22;65033;44.660;37.758;2023-09-19T02:53:14;20.89;37.84
75985;DHT22;65033;44.660;37.758;2023-09-19T02:54:18;20.88;37.90
75985;DHT22;65033;44.660;37.758;2023-09-19T02:55:22;20.88;37.90
75985;DHT22;65033;44.660;37.758;2023-09-19T02:56:26;20.89;37.61
75985;DHT22;65033;44.660;37.758;2023-09-19T02:57:29;20.88;37.51
75985;DHT22;65033;44.660;37.758;2023-09-19T02:58:34;20.88;37.62
75985;DHT22;65033;44.660;37.758;2023-09-19T02:59:39;20.86;37.52
75985;DHT22;65033;44.660;37.758;2023-09-19T03:00:45;20.86;37.57
75985;DHT22;65033;44.660;37.758;2023-09-19T03:01:53;20.85;37.70
75985;DHT22;65033;44.660;37.758;2023-09-19T03:02:58;20.87;37.86
75985;DHT22;65033;44.660;37.758;2023-09-19T03:04:03;20.86;37.90
75985;DHT22;65033;44.660;37.758;2023-09-19T03:05:07;20.85;38.00
75985;DHT22;65033;44.660;37.758;2023-09-19T03:06:11;20.84;38.22
75985;DHT22;65033;44.660;37.758;2023-09-19T03:07:16;20.84;38.35
75985;DHT22;65033;44.660;37.758;2023-09-19T03:08:26;20.80;38.49
75985;DHT22;65033;44.660;37.758;2023-09-19T03:09:29;20.79;38.57
75985;DHT22;65033;44.660;37.758;2023-09-19T03:10:32;20.78;38.57
75985;DHT22;65033;44.660;37.758;2023-09-19T03:11:36;20.78;38.73
75985;DHT22;65033;44.660;37.758;2023-09-19T03:12:39;20.77;38.97
75985;DHT22;65033;44.660;37.758;2023-09-19T03:13:43;20.76;38.75
75985;DHT22;65033;44.660;37.758;2023-09-19T03:14:48;20.77;38.37
75985;DHT22;65033;44.660;37.758;2023-09-19T03:15:54;20.74;38.31
75985;DHT22;65033;44.660;37.758;2023-09-19T03:17:03;20.74;38.23
75985;DHT22;65033;44.660;37.758;2023-09-19T03:18:08;20.77;38.07
75985;DHT22;65033;44.660;37.758;2023-09-19T03:19:11;20.77;38.26
75985;DHT22;65033;44.660;37.758;2023-09-19T03:20:15;20.78;38.24
75985;DHT22;65033;44.660;37.758;2023-09-19T03:21:23;20.78;38.68
75985;DHT22;65033;44.660;37.758;2023-09-19T03:22:27;20.78;38.55
75985;DHT22;65033;44.660;37.758;2023-09-19T03:23:31;20.81;38.58
75985;DHT22;65033;44.660;37.758;2023-09-19T03:24:34;20.80;38.58
75985;DHT22;65033;44.660;37.758;2023-09-19T03:25:41;20.81;38.56
75985;DHT22;65033;44.660;37.758;2023-09-19T03:26:44;20.83;38.55
75985;DHT22;65033;44.660;37.758;2023-09-19T03:27:48;20.83;37.88
75985;DHT22;65033;44.660;37.758;2023-09-19T03:28:52;20.84;38.07
75985;DHT22;65033;44.660;37.758;2023-09-19T03:29:55;20.84;38.36
75985;DHT22;65033;44.660;37.758;2023-09-19T03:31:01;20.85;38.24
75985;DHT22;65033;44.660;37.758;2023-09-19T03:32:09;20.87;38.30
75985;DHT22;65033;44.660;37.758;2023-09-19T03:33:18;20.88;38.36
75985;DHT22;65033;44.660;37.758;2023-09-19T03:34:21;20.91;38.21
75985;DHT22;65033;44.660;37.758;2023-09-19T03:35:25;20.92;38.23
75985;DHT22;65033;44.660;37.758;2023-09-19T03:36:29;20.93;37.96
75985;DHT22;65033;44.660;37.758;2023-09-19T03:37:32;20.95;38.12
75985;DHT22;65033;44.660;37.758;2023-09-19T03:38:37;20.95;38.11
75985;DHT22;65033;44.660;37.758;2023-09-19T03:39:47;20.99;38.08
75985;DHT22;65033;44.660;37.758;2023-09-19T03:40:51;20.99;37.35
75985;DHT22;65033;44.660;37.758;2023-09-19T03:41:56;21.01;37.72
75985;DHT22;65033;44.660;37.758;2023-09-19T03:43:01;21.04;37.69
75985;DHT22;65033;44.660;37.758;2023-09-19T03:44:05;21.08;37.12
75985;DHT22;65033;44.660;37.758;2023-09-19T03:45:41;21.10;36.90
75985;DHT22;65033;44.660;37.758;2023-09-19T03:46:56;21.14;36.98
75985;DHT22;65033;44.660;37.758;2023-09-19T03:48:01;21.15;37.29
75985;DHT22;65033;44.660;37.758;2023-09-19T03:49:05;21.16;37.33
75985;DHT22;65033;44.660;37.758;2023-09-19T03:50:09;21.19;36.83
75985;DHT22;65033;44.660;37.758;2023-09-19T03:51:15;21.20;37.08
75985;DHT22;65033;44.660;37.758;2023-09-19T03:52:18;21.23;37.36
75985;DHT22;65033;44.660;37.758;2023-09-19T03:53:22;21.27;37.66
75985;DHT22;65033;44.660;37.758;2023-09-19T03:54:25;21.30;37.91
75985;DHT22;65033;44.660;37.758;2023-09-19T03:55:30;21.32;37.35
75985;DHT22;65033;44.660;37.758;2023-09-19T03:56:34;21.34;37.40
75985;DHT22;65033;44.660;37.758;2023-09-19T03:57:38;21.37;37.19
75985;DHT22;65033;44.660;37.758;2023-09-19T03:58:41;21.40;37.14
75985;DHT22;65033;44.660;37.758;2023-09-19T03:59:44;21.44;37.14
75985;DHT22;65033;44.660;37.758;2023-09-19T04:00:48;21.45;37.05
75985;DHT22;65033;44.660;37.758;2023-09-19T04:01:54;21.47;37.05
75985;DHT22;65033;44.660;37.758;2023-09-19T04:03:01;21.50;36.68
75985;DHT22;65033;44.660;37.758;2023-09-19T04:04:11;21.53;36.66
75985;DHT22;65033;44.660;37.758;2023-09-19T04:05:17;21.55;36.64
75985;DHT22;65033;44.660;37.758;2023-09-19T04:06:26;21.59;36.94
75985;DHT22;65033;44.660;37.758;2023-09-19T04:07:30;21.61;37.04
75985;DHT22;65033;44.660;37.758;2023-09-19T04:08:33;21.64;37.20
75985;DHT22;65033;44.660;37.758;2023-09-19T04:09:37;21.67;36.85
75985;DHT22;65033;44.660;37.758;2023-09-19T04:10:42;21.70;36.18
75985;DHT22;65033;44.660;37.758;2023-09-19T04:11:47;21.75;36.22
75985;DHT22;65033;44.660;37.758;2023-09-19T04:12:53;21.78;36.17
75985;DHT22;65033;44.660;37.758;2023-09-19T04:14:06;21.81;36.00
75985;DHT22;65033;44.660;37.758;2023-09-19T04:15:10;21.84;35.18
75985;DHT22;65033;44.660;37.758;2023-09-19T04:16:16;21.87;35.21
75985;DHT22;65033;44.660;37.758;2023-09-19T04:17:21;21.88;34.97
75985;DHT22;65033;44.660;37.758;2023-09-19T04:18:25;21.92;34.59
75985;DHT22;65033;44.660;37.758;2023-09-19T04:19:29;21.95;34.13
75985;DHT22;65033;44.660;37.758;2023-09-19T04:20:32;21.96;33.53
75985;DHT22;65033;44.660;37.758;2023-09-19T04:21:36;21.99;33.62
75985;DHT22;65033;44.660;37.758;2023-09-19T04:22:40;22.04;33.57
75985;DHT22;65033;44.660;37.758;2023-09-19T04:23:43;22.05;33.46
75985;DHT22;65033;44.660;37.758;2023-09-19T04:24:46;22.08;33.14
75985;DHT22;65033;44.660;37.758;2023-09-19T04:25:50;22.11;33.24
75985;DHT22;65033;44.660;37.758;2023-09-19T04:26:54;22.13;32.83
75985;DHT22;65033;44.660;37.758;2023-09-19T04:27:57;22.16;32.57
75985;DHT22;65033;44.660;37.758;2023-09-19T04:29:01;22.18;32.43
75985;DHT22;65033;44.660;37.758;2023-09-19T04:30:06;22.20;31.67
75985;DHT22;65033;44.660;37.758;2023-09-19T04:31:15;22.22;31.84
75985;DHT22;65033;44.660;37.758;2023-09-19T04:32:22;22.24;31.89
75985;DHT22;65033;44.660;37.758;2023-09-19T04:33:27;22.26;32.05
75985;DHT22;65033;44.660;37.758;2023-09-19T04:34:30;22.31;32.05
75985;DHT22;65033;44.660;37.758;2023-09-19T04:35:36;22.32;31.98
75985;DHT22;65033;44.660;37.758;2023-09-19T04:36:39;22.34;31.96
75985;DHT22;65033;44.660;37.758;2023-09-19T04:37:43;22.36;31.90
75985;DHT22;65033;44.660;37.758;2023-09-19T04:38:46;22.40;32.08
75985;DHT22;65033;44.660;37.758;2023-09-19T04:39:49;22.41;31.46
75985;DHT22;65033;44.660;37.758;2023-09-19T04:40:57;22.47;31.34
75985;DHT22;65033;44.660;37.758;2023-09-19T04:42:05;22.49;31.43
75985;DHT22;65033;44.660;37.758;2023-09-19T04:43:09;22.53;31.20
75985;DHT22;65033;44.660;37.758;2023-09-19T04:44:12;22.58;31.19
75985;DHT22;65033;44.660;37.758;2023-09-19T04:45:16;22.63;31.13
75985;DHT22;65033;44.660;37.758;2023-09-19T04:46:22;22.64;29.79
75985;DHT22;65033;44.660;37.758;2023-09-19T04:47:28;22.67;29.87
75985;DHT22;65033;44.660;37.758;2023-09-19T04:48:35;22.69;29.72
75985;DHT22;65033;44.660;37.758;2023-09-19T04:49:39;22.71;29.78
75985;DHT22;65033;44.660;37.758;2023-09-19T04:51:02;22.72;29.91
75985;DHT22;65033;44.660;37.758;2023-09-19T04:52:06;22.78;29.81
75985;DHT22;65033;44.660;37.758;2023-09-19T04:53:10;22.80;29.51
75985;DHT22;65033;44.660;37.758;2023-09-19T04:54:13;22.80;29.11
75985;DHT22;65033;44.660;37.758;2023-09-19T04:55:18;22.82;29.31
75985;DHT22;65033;44.660;37.758;2023-09-19T04:56:22;22.85;29.31
75985;DHT22;65033;44.660;37.758;2023-09-19T04:57:31;22.90;29.43
75985;DHT22;65033;44.660;37.758;2023-09-19T04:58:35;22.93;29.06
75985;DHT22;65033;44.660;37.758;2023-09-19T04:59:38;22.95;28.72
75985;DHT22;65033;44.660;37.758;2023-09-19T05:00:44;22.97;28.83
75985;DHT22;65033;44.660;37.758;2023-09-19T05:01:49;22.99;28.99
75985;DHT22;65033;44.660;37.758;2023-09-19T05:02:54;23.02;29.06
75985;DHT22;65033;44.660;37.758;2023-09-19T05:03:59;23.08;28.84
75985;DHT22;65033;44.660;37.758;2023-09-19T05:05:04;23.11;28.79
75985;DHT22;65033;44.660;37.758;2023-09-19T05:06:09;23.14;28.84
75985;DHT22;65033;44.660;37.758;2023-09-19T05:07:12;23.18;28.97
75985;DHT22;65033;44.660;37.758;2023-09-19T05:08:16;23.22;28.83
75985;DHT22;65033;44.660;37.758;2023-09-19T05:09:21;23.27;28.74
75985;DHT22;65033;44.660;37.758;2023-09-19T05:10:24;23.32;28.58
75985;DHT22;65033;44.660;37.758;2023-09-19T05:11:28;23.35;28.49
75985;DHT22;65033;44.660;37.758;2023-09-19T05:12:36;23.42;28.32
75985;DHT22;65033;44.660;37.758;2023-09-19T05:13:39;23.46;27.74
75985;DHT22;65033;44.660;37.758;2023-09-19T05:14:43;23.50;27.71
75985;DHT22;65033;44.660;37.758;2023-09-19T05:15:46;23.51;27.66
75985;DHT22;65033;44.660;37.758;2023-09-19T05:16:49;23.56;27.70
75985;DHT22;65033;44.660;37.758;2023-09-19T05:17:53;23.60;27.63
75985;DHT22;65033;44.660;37.758;2023-09-19T05:19:03;23.66;27.75
75985;DHT22;65033;44.660;37.758;2023-09-19T05:20:07;23.68;27.65
75985;DHT22;65033;44.660;37.758;2023-09-19T05:21:21;23.75;27.39
75985;DHT22;65033;44.660;37.758;2023-09-19T05:22:27;23.76;26.88
75985;DHT22;65033;44.660;37.758;2023-09-19T05:23:30;23.77;26.84
75985;DHT22;65033;44.660;37.758;2023-09-19T05:24:36;23.79;26.78
75985;DHT22;65033;44.660;37.758;2023-09-19T05:25:40;23.81;27.08
75985;DHT22;65033;44.660;37.758;2023-09-19T05:26:43;23.83;26.98
75985;DHT22;65033;44.660;37.758;2023-09-19T05:27:47;23.85;27.29
75985;DHT22;65033;44.660;37.758;2023-09-19T05:28:53;23.89;27.34
75985;DHT22;65033;44.660;37.758;2023-09-19T05:29:56;23.94;27.31
75985;DHT22;65033;44.660;37.758;2023-09-19T05:31:00;23.92;27.60
75985;DHT22;65033;44.660;37.758;2023-09-19T05:32:05;23.98;27.79
75985;DHT22;65033;44.660;37.758;2023-09-19T05:33:11;24.00;27.62
75985;DHT22;65033;44.660;37.758;2023-09-19T05:34:16;24.03;27.60
75985;DHT22;65033;44.660;37.758;2023-09-19T05:35:21;24.08;27.59
75985;DHT22;65033;44.660;37.758;2023-09-19T05:36:27;24.11;27.72
75985;DHT22;65033;44.660;37.758;2023-09-19T05:37:32;24.16;27.81
75985;DHT22;65033;44.660;37.758;2023-09-19T05:38:38;24.19;27.42
75985;DHT22;65033;44.660;37.758;2023-09-19T05:39:44;24.23;27.38
75985;DHT22;65033;44.660;37.758;2023-09-19T05:40:50;24.27;27.49
75985;DHT22;65033;44.660;37.758;2023-09-19T05:42:00;24.29;26.58
75985;DHT22;65033;44.660;37.758;2023-09-19T05:43:09;24.31;26.32
75985;DHT22;65033;44.660;37.758;2023-09-19T05:44:13;24.32;26.54
75985;DHT22;65033;44.660;37.758;2023-09-19T05:45:17;24.33;26.39
75985;DHT22;65033;44.660;37.758;2023-09-19T05:46:32;24.35;26.55
75985;DHT22;65033;44.660;37.758;2023-09-19T05:47:35;24.38;26.52
75985;DHT22;65033;44.660;37.758;2023-09-19T05:48:39;24.42;26.40
75985;DHT22;65033;44.660;37.758;2023-09-19T05:49:45;24.45;26.34
75985;DHT22;65033;44.660;37.758;2023-09-19T05:50:51;24.49;26.62
75985;DHT22;65033;44.660;37.758;2023-09-19T05:51:58;24.53;26.88
75985;DHT22;65033;44.660;37.758;2023-09-19T05:53:03;24.53;26.62
75985;DHT22;65033;44.660;37.758;2023-09-19T05:54:07;24.54;27.04
75985;DHT22;65033;44.660;37.758;2023-09-19T05:55:11;24.59;26.81
75985;DHT22;65033;44.660;37.758;2023-09-19T05:56:14;24.62;26.63
75985;DHT22;65033;44.660;37.758;2023-09-19T05:57:18;24.65;26.84
75985;DHT22;65033;44.660;37.758;2023-09-19T05:58:22;24.66;26.16
75985;DHT22;65033;44.660;37.758;2023-09-19T05:59:25;24.71;26.17
75985;DHT22;65033;44.660;37.758;2023-09-19T06:00:30;24.75;25.76
75985;DHT22;65033;44.660;37.758;2023-09-19T06:01:36;24.78;25.84
75985;DHT22;65033;44.660;37.758;2023-09-19T06:02:39;24.80;25.88
75985;DHT22;65033;44.660;37.758;2023-09-19T06:03:43;24.85;25.86
75985;DHT22;65033;44.660;37.758;2023-09-19T06:04:48;24.91;25.81
75985;DHT22;65033;44.660;37.758;2023-09-19T06:05:52;24.91;25.41
75985;DHT22;65033;44.660;37.758;2023-09-19T06:07:02;24.89;25.32
75985;DHT22;65033;44.660;37.758;2023-09-19T06:08:06;24.90;25.09
75985;DHT22;65033;44.660;37.758;2023-09-19T06:09:11;24.93;25.33
75985;DHT22;65033;44.660;37.758;2023-09-19T06:10:14;24.99;25.22
75985;DHT22;65033;44.660;37.758;2023-09-19T06:11:18;25.02;25.01
75985;DHT22;65033;44.660;37.758;2023-09-19T06:12:23;25.03;24.65
75985;DHT22;65033;44.660;37.758;2023-09-19T06:13:28;25.02;24.75
75985;DHT22;65033;44.660;37.758;2023-09-19T06:14:31;25.02;25.17
75985;DHT22;65033;44.660;37.758;2023-09-19T06:15:35;25.03;24.24
75985;DHT22;65033;44.660;37.758;2023-09-19T06:16:39;25.03;23.72
75985;DHT22;65033;44.660;37.758;2023-09-19T06:17:47;25.05;23.50
75985;DHT22;65033;44.660;37.758;2023-09-19T06:18:51;25.06;23.72
75985;DHT22;65033;44.660;37.758;2023-09-19T06:19:57;25.10;23.43
75985;DHT22;65033;44.660;37.758;2023-09-19T06:21:00;25.16;24.02
75985;DHT22;65033;44.660;37.758;2023-09-19T06:22:08;25.17;23.86
75985;DHT22;65033;44.660;37.758;2023-09-19T06:23:13;25.19;23.62
75985;DHT22;65033;44.660;37.758;2023-09-19T06:24:22;25.22;23.33
75985;DHT22;65033;44.660;37.758;2023-09-19T06:25:26;25.28;23.43
75985;DHT22;65033;44.660;37.758;2023-09-19T06:26:30;25.27;23.46
75985;DHT22;65033;44.660;37.758;2023-09-19T06:27:35;25.32;23.90
75985;DHT22;65033;44.660;37.758;2023-09-19T06:28:40;25.36;24.17
75985;DHT22;65033;44.660;37.758;2023-09-19T06:29:46;25.38;24.34
75985;DHT22;65033;44.660;37.758;2023-09-19T06:30:52;25.39;23.89
75985;DHT22;65033;44.660;37.758;2023-09-19T06:31:56;25.38;23.85
75985;DHT22;65033;44.660;37.758;2023-09-19T06:33:01;25.38;24.04
75985;DHT22;65033;44.660;37.758;2023-09-19T06:34:05;25.43;24.29
75985;DHT22;65033;44.660;37.758;2023-09-19T06:35:12;25.49;24.34
75985;DHT22;65033;44.660;37.758;2023-09-19T06:36:17;25.53;24.71
75985;DHT22;65033;44.660;37.758;2023-09-19T06:37:22;25.57;23.16
75985;DHT22;65033;44.660;37.758;2023-09-19T06:38:25;25.56;22.97
75985;DHT22;65033;44.660;37.758;2023-09-19T06:39:29;25.58;22.40
75985;DHT22;65033;44.660;37.758;2023-09-19T06:40:33;25.58;22.53
75985;DHT22;65033;44.660;37.758;2023-09-19T06:41:40;25.59;22.61
75985;DHT22;65033;44.660;37.758;2023-09-19T06:42:53;25.59;22.74
75985;DHT22;65033;44.660;37.758;2023-09-19T06:43:57;25.61;22.98
75985;DHT22;65033;44.660;37.758;2023-09-19T06:45:00;25.68;23.37
75985;DHT22;65033;44.660;37.758;2023-09-19T06:46:04;25.68;23.91
75985;DHT22;65033;44.660;37.758;2023-09-19T06:47:08;25.69;23.98
75985;DHT22;65033;44.660;37.758;2023-09-19T06:48:13;25.68;23.34
75985;DHT22;65033;44.660;37.758;2023-09-19T06:49:16;25.69;23.43